Time;durP1;ratioP1;P1;durP2;ratioP2;P2;SDS_P1;SDS_P2;PMS_P1;PMS_P2;Temp;Humidity;BMP_temperature;BMP_pressure;BME280_temperature;BME280_humidity;BME280_pressure;Samples;Min_cycle;Max_cycle;Signal;HPM_P1;HPM_P2
2022/08/17 00:00:38;;;;;;;;;;;;;;;23.11;77.88;96613.89;606621;234;66900;-66
2022/08/17 00:03:09;;;;;;;;;;;;;;;23.11;77.81;96616.58;606591;234;63622;-66
2022/08/17 00:05:42;;;;;;;;;;;;;;;23.11;77.86;96611.21;606574;234;64749;-66
2022/08/17 00:08:11;;;;;;;;;;;;;;;23.11;77.79;96613.89;605432;234;64923;-66
2022/08/17 00:10:38;;;;;;;;;;;;;;;23.11;77.87;96619.25;606629;234;62830;-66
2022/08/17 00:13:07;;;;;;;;;;;;;;;23.11;77.95;96613.89;606563;234;64817;-66
2022/08/17 00:15:35;;;;;;;;;;;;;;;23.11;77.94;96613.89;606576;234;64510;-66
2022/08/17 00:18:03;;;;;;;;;;;;;;;23.11;77.87;96613.89;606601;234;62749;-66
2022/08/17 00:20:30;;;;;;;;;;;;;;;23.11;77.90;96619.25;606599;234;64577;-66
2022/08/17 00:23:11;;;;;;;;;;;;;;;23.10;77.96;96612.28;606623;234;64454;-67
2022/08/17 00:25:40;;;;;;;;;;;;;;;23.10;77.94;96609.60;606560;234;62832;-66
2022/08/17 00:28:07;;;;;;;;;;;;;;;;;;606570;234;67241;-66
2022/08/17 00:30:39;;;;;;;;;;;;;;;23.11;77.90;96600.49;606680;234;67406;-66
2022/08/17 00:33:14;;;;;;;;;;;;;;;23.10;77.82;96604.24;606471;234;65059;-66
2022/08/17 00:35:42;;;;;;;;;;;;;;;23.09;77.68;96610.70;606612;234;64770;-66
2022/08/17 00:38:11;;;;;;;;;;;;;;;23.10;77.78;96598.09;606556;234;67967;-66
2022/08/17 00:40:39;;;;;;;;;;;;;;;23.10;77.80;96601.56;606582;234;64943;-66
2022/08/17 00:43:08;;;;;;;;;;;;;;;23.10;77.85;96598.88;606644;234;67008;-66
2022/08/17 00:45:36;;;;;;;;;;;;;;;23.09;77.87;96594.63;606501;233;66887;-66
2022/08/17 00:48:03;;;;;;;;;;;;;;;23.10;77.83;96598.09;606623;234;64875;-66
2022/08/17 00:50:31;;;;;;;;;;;;;;;23.09;77.88;96602.66;606599;234;66483;-66
2022/08/17 00:52:59;;;;;;;;;;;;;;;23.10;77.91;96601.56;606600;234;64558;-66
2022/08/17 00:55:27;;;;;;;;;;;;;;;23.09;77.83;96599.98;606581;234;65228;-66
2022/08/17 00:57:56;;;;;;;;;;;;;;;23.10;77.82;96608.81;606623;234;64695;-66
2022/08/17 01:00:25;;;;;;;;;;;;;;;23.09;77.88;96599.98;606612;234;64458;-67
2022/08/17 01:02:57;;;;;;;;;;;;;;;23.09;77.85;96613.38;606590;234;64843;-67
2022/08/17 01:05:26;;;;;;;;;;;;;;;23.08;77.88;96601.09;606412;233;67030;-67
2022/08/17 01:07:54;;;;;;;;;;;;;;;23.09;77.85;96607.23;606710;234;64018;-66
2022/08/17 01:10:24;;;;;;;;;;;;;;;23.09;77.87;96604.55;606654;234;64956;-67
2022/08/17 01:12:51;;;;;;;;;;;;;;;23.08;77.83;96602.94;606508;234;68069;-66
2022/08/17 01:15:19;;;;;;;;;;;;;;;23.08;77.76;96611.80;606633;234;67727;-67
2022/08/17 01:17:47;;;;;;;;;;;;;;;23.08;77.82;96601.09;606531;234;62639;-66
2022/08/17 01:20:15;;;;;;;;;;;;;;;23.08;77.81;96600.27;606683;234;67304;-66
2022/08/17 01:22:43;;;;;;;;;;;;;;;23.08;77.74;96606.44;606631;234;67030;-66
2022/08/17 01:25:12;;;;;;;;;;;;;;;23.07;77.77;96602.16;606629;234;62702;-66
2022/08/17 01:27:40;;;;;;;;;;;;;;;23.07;77.74;96596.80;606605;234;65000;-66
2022/08/17 01:30:09;;;;;;;;;;;;;;;23.08;77.75;96600.27;606596;234;67058;-66
2022/08/17 01:32:37;;;;;;;;;;;;;;;23.08;77.75;96602.94;606667;234;62952;-66
2022/08/17 01:35:05;;;;;;;;;;;;;;;23.07;77.75;96596.80;606606;234;65658;-66
2022/08/17 01:37:34;;;;;;;;;;;;;;;23.07;77.78;96599.47;606660;234;66659;-67
2022/08/17 01:40:15;;;;;;;;;;;;;;;23.07;77.88;96594.11;606619;234;65365;-66
2022/08/17 01:42:50;;;;;;;;;;;;;;;23.07;77.85;96591.44;597787;234;64938;-66
2022/08/17 01:45:19;;;;;;;;;;;;;;;23.06;77.78;96589.85;606559;234;65152;-66
2022/08/17 01:47:46;;;;;;;;;;;;;;;23.07;77.71;96582.60;606663;234;62931;-66
2022/08/17 01:50:15;;;;;;;;;;;;;;;23.06;77.68;96581.81;606657;234;64878;-66
2022/08/17 01:52:44;;;;;;;;;;;;;;;23.06;77.70;96579.13;606642;234;66855;-66
2022/08/17 01:55:13;;;;;;;;;;;;;;;23.06;77.67;96587.17;606606;234;62767;-68
2022/08/17 01:57:44;;;;;;;;;;;;;;;23.06;77.63;96579.13;606625;234;64824;-69
2022/08/17 02:00:11;;;;;;;;;;;;;;;23.06;77.59;96578.34;606644;234;64764;-69
2022/08/17 02:02:40;;;;;;;;;;;;;;;23.06;77.57;96579.13;606635;234;65030;-67
2022/08/17 02:05:08;;;;;;;;;;;;;;;23.06;77.54;96572.98;606534;234;66778;-66
2022/08/17 02:07:36;;;;;;;;;;;;;;;23.05;77.53;96569.48;606546;234;67040;-66
2022/08/17 02:10:07;;;;;;;;;;;;;;;23.05;77.58;96569.48;606516;234;61821;-66
2022/08/17 02:12:36;;;;;;;;;;;;;;;23.06;77.53;96579.13;606550;234;67296;-68
2022/08/17 02:15:08;;;;;;;;;;;;;;;23.06;77.51;96578.34;606606;234;67077;-68
2022/08/17 02:17:36;;;;;;;;;;;;;;;23.05;77.54;96572.16;606565;234;65073;-69
2022/08/17 02:20:04;;;;;;;;;;;;;;;23.04;77.53;96571.37;606521;234;64770;-69
2022/08/17 02:22:32;;;;;;;;;;;;;;;23.04;77.47;96583.98;606555;234;67735;-69
2022/08/17 02:25:00;;;;;;;;;;;;;;;23.05;77.45;96580.20;606545;234;63637;-69
2022/08/17 02:27:28;;;;;;;;;;;;;;;23.05;77.42;96572.16;606619;234;67237;-68
2022/08/17 02:29:56;;;;;;;;;;;;;;;23.05;77.36;96580.20;606571;234;66771;-69
2022/08/17 02:32:25;;;;;;;;;;;;;;;23.04;77.38;96576.73;606611;234;65179;-68
2022/08/17 02:34:53;;;;;;;;;;;;;;;23.04;77.39;96573.27;606560;234;67368;-67
2022/08/17 02:37:21;;;;;;;;;;;;;;;23.04;77.34;96574.05;606619;234;67084;-66
2022/08/17 02:39:48;;;;;;;;;;;;;;;23.04;77.30;96570.59;606592;234;64916;-67
2022/08/17 02:42:16;;;;;;;;;;;;;;;23.04;77.31;96565.23;606674;234;67103;-67
2022/08/17 02:44:44;;;;;;;;;;;;;;;23.03;77.28;96569.80;606632;234;65728;-67
2022/08/17 02:47:11;;;;;;;;;;;;;;;23.03;77.27;96569.00;606583;234;62731;-67
2022/08/17 02:49:39;;;;;;;;;;;;;;;23.04;77.22;96571.37;606604;234;64798;-66
2022/08/17 02:52:07;;;;;;;;;;;;;;;23.04;77.18;96565.23;606601;234;64556;-67
2022/08/17 02:54:35;;;;;;;;;;;;;;;23.04;77.12;96565.23;606605;234;62970;-67
2022/08/17 02:57:03;;;;;;;;;;;;;;;23.03;77.10;96574.37;606511;234;64881;-66
2022/08/17 02:59:30;;;;;;;;;;;;;;;23.03;77.08;96580.52;606558;234;64999;-67
2022/08/17 03:01:57;;;;;;;;;;;;;;;23.03;77.08;96577.05;606449;234;62778;-66
2022/08/17 03:04:25;;;;;;;;;;;;;;;23.02;77.07;96578.91;606650;234;64793;-67
2022/08/17 03:06:52;;;;;;;;;;;;;;;23.04;77.05;96578.63;606671;234;64775;-67
2022/08/17 03:09:20;;;;;;;;;;;;;;;23.03;77.01;96583.20;606620;234;64602;-66
2022/08/17 03:11:49;;;;;;;;;;;;;;;23.03;77.02;96593.13;606634;234;64898;-67
2022/08/17 03:14:17;;;;;;;;;;;;;;;23.03;77.00;96593.13;606604;234;64485;-67
2022/08/17 03:16:45;;;;;;;;;;;;;;;23.03;76.94;96595.80;606635;234;63038;-66
2022/08/17 03:19:13;;;;;;;;;;;;;;;23.02;76.95;96600.34;606656;234;66890;-67
2022/08/17 03:21:40;;;;;;;;;;;;;;;23.02;76.93;96594.20;606616;234;64787;-67
2022/08/17 03:24:08;;;;;;;;;;;;;;;23.02;76.93;96588.84;606552;234;65190;-67
2022/08/17 03:26:35;;;;;;;;;;;;;;;23.02;76.88;96600.34;606610;234;64940;-66
2022/08/17 03:29:03;;;;;;;;;;;;;;;23.02;76.87;96611.06;606551;234;64677;-67
2022/08/17 03:31:31;;;;;;;;;;;;;;;23.02;76.85;96611.06;606667;234;64892;-67
2022/08/17 03:33:59;;;;;;;;;;;;;;;23.02;76.79;96612.95;606598;234;67028;-67
2022/08/17 03:36:27;;;;;;;;;;;;;;;23.01;76.76;96611.38;606631;234;66917;-66
2022/08/17 03:38:54;;;;;;;;;;;;;;;23.00;76.73;96610.59;606594;234;64861;-66
2022/08/17 03:41:22;;;;;;;;;;;;;;;23.02;76.69;96612.95;606598;234;67346;-65
2022/08/17 03:43:50;;;;;;;;;;;;;;;23.01;76.73;96617.52;606633;234;67100;-64
2022/08/17 03:57:09;;;;;;;;;;;;;;;23.01;76.68;96638.97;602407;233;67093;-66
2022/08/17 03:59:36;;;;;;;;;;;;;;;23.00;76.65;96636.59;606642;234;64969;-68
2022/08/17 04:02:07;;;;;;;;;;;;;;;23.01;76.67;96640.86;606513;234;62459;-68
2022/08/17 04:04:35;;;;;;;;;;;;;;;22.99;76.67;96635.77;606518;232;67406;-68
2022/08/17 04:07:03;;;;;;;;;;;;;;;23.00;76.66;96639.28;606571;234;66661;-68
2022/08/17 04:09:31;;;;;;;;;;;;;;;23.00;76.59;96641.95;606556;234;62643;-68
2022/08/17 04:11:58;;;;;;;;;;;;;;;22.99;76.58;96638.45;606549;234;68268;-68
2022/08/17 04:14:26;;;;;;;;;;;;;;;23.00;76.56;96647.31;606529;234;67309;-68
2022/08/17 04:16:53;;;;;;;;;;;;;;;23.00;76.55;96647.31;606515;234;62712;-68
2022/08/17 04:19:21;;;;;;;;;;;;;;;23.00;76.54;96655.36;606535;234;64801;-68
2022/08/17 04:21:48;;;;;;;;;;;;;;;23.00;76.56;96658.03;606553;234;67334;-69
2022/08/17 04:24:16;;;;;;;;;;;;;;;23.00;76.57;96663.39;606507;234;65051;-68
2022/08/17 04:26:43;;;;;;;;;;;;;;;23.01;76.55;96656.94;606528;234;64944;-68
2022/08/17 04:29:11;;;;;;;;;;;;;;;23.00;76.58;96658.03;606578;234;66759;-68
2022/08/17 04:31:39;;;;;;;;;;;;;;;22.99;76.57;96661.78;606548;234;67344;-68
2022/08/17 04:34:06;;;;;;;;;;;;;;;23.00;76.53;96655.36;606524;234;66776;-68
2022/08/17 04:36:34;;;;;;;;;;;;;;;22.99;76.52;96651.86;606543;234;66966;-68
2022/08/17 04:39:02;;;;;;;;;;;;;;;22.99;76.51;96656.42;606534;234;62637;-68
2022/08/17 04:44:15;;;;;;;;;;;;;;;22.99;76.48;96656.42;606641;234;67728;-67
2022/08/17 04:46:42;;;;;;;;;;;;;;;22.99;76.47;96654.53;606574;234;64523;-67
2022/08/17 04:49:11;;;;;;;;;;;;;;;22.99;76.48;96659.89;606554;234;64707;-67
2022/08/17 04:51:40;;;;;;;;;;;;;;;22.99;76.52;96654.53;606569;234;66870;-67
2022/08/17 04:54:09;;;;;;;;;;;;;;;23.00;76.53;96652.67;606582;234;65042;-68
2022/08/17 04:56:37;;;;;;;;;;;;;;;23.00;76.53;96655.36;606612;234;66736;-68
2022/08/17 04:59:07;;;;;;;;;;;;;;;22.99;76.54;96651.06;606614;234;66901;-68
2022/08/17 05:01:36;;;;;;;;;;;;;;;22.99;76.56;96651.86;606576;234;62740;-67
2022/08/17 05:04:05;;;;;;;;;;;;;;;22.98;76.55;96652.95;606582;234;66709;-67
2022/08/17 05:06:32;;;;;;;;;;;;;;;22.99;76.59;96654.53;606644;234;66757;-67
2022/08/17 05:09:00;;;;;;;;;;;;;;;22.99;76.57;96653.74;606619;234;62848;-67
2022/08/17 05:11:28;;;;;;;;;;;;;;;22.99;76.55;96659.89;606692;234;66831;-67
2022/08/17 05:13:57;;;;;;;;;;;;;;;22.99;76.55;96656.42;606661;234;66886;-67
2022/08/17 05:16:25;;;;;;;;;;;;;;;22.99;76.54;96656.42;606646;234;64860;-67
2022/08/17 05:18:52;;;;;;;;;;;;;;;22.99;76.59;96661.78;606616;234;66770;-67
2022/08/17 05:21:21;;;;;;;;;;;;;;;22.99;76.58;96659.11;606643;234;66787;-67
2022/08/17 05:23:49;;;;;;;;;;;;;;;22.99;76.61;96662.57;606656;234;63033;-68
2022/08/17 05:26:18;;;;;;;;;;;;;;;22.99;76.58;96667.14;606631;234;65647;-68
2022/08/17 05:28:46;;;;;;;;;;;;;;;22.99;76.62;96670.61;606576;234;67560;-69
2022/08/17 05:31:14;;;;;;;;;;;;;;;22.99;76.63;96667.14;606601;234;64903;-68
2022/08/17 05:33:42;;;;;;;;;;;;;;;22.99;76.66;96673.30;606401;234;67014;-69
2022/08/17 05:36:11;;;;;;;;;;;;;;;22.99;76.65;96673.30;606625;234;64546;-68
2022/08/17 05:38:39;;;;;;;;;;;;;;;23.00;76.65;96668.75;606482;234;65045;-69
2022/08/17 05:41:07;;;;;;;;;;;;;;;23.00;76.63;96682.16;606638;234;64691;-69
2022/08/17 05:43:36;;;;;;;;;;;;;;;22.99;76.66;96673.30;606601;234;64805;-69
2022/08/17 05:46:17;;;;;;;;;;;;;;;23.00;76.66;96687.52;606231;234;65953;-69
2022/08/17 05:48:55;;;;;;;;;;;;;;;23.00;76.63;96680.27;606275;234;64527;-67
2022/08/17 05:51:33;;;;;;;;;;;;;;;22.99;76.64;96675.19;606532;234;67321;-69
2022/08/17 05:54:02;;;;;;;;;;;;;;;23.00;76.66;96674.11;606121;234;64925;-70
2022/08/17 05:56:31;;;;;;;;;;;;;;;23.00;76.66;96676.80;604176;234;67316;-69
2022/08/17 05:59:12;;;;;;;;;;;;;;;23.00;76.66;96671.44;598108;234;66997;-68
2022/08/17 06:01:41;;;;;;;;;;;;;;;23.01;72.77;96665.77;606407;233;62850;-67
2022/08/17 06:04:28;;;;;;;;;;;;;;;23.03;74.41;96666.28;606372;233;64875;-67
2022/08/17 06:06:57;;;;;;;;;;;;;;;23.02;75.63;96661.20;606027;234;64817;-73
2022/08/17 06:09:33;;;;;;;;;;;;;;;23.01;75.63;96665.77;606237;234;65118;-67
2022/08/17 06:12:02;;;;;;;;;;;;;;;23.01;75.59;96660.41;606524;234;66908;-67
2022/08/17 06:14:40;;;;;;;;;;;;;;;23.00;75.50;96666.08;605843;234;67308;-66
2022/08/17 06:17:09;;;;;;;;;;;;;;;23.00;74.89;96668.75;601243;236;66082;-67
2022/08/17 06:19:41;;;;;;;;;;;;;;;23.01;74.70;96665.77;601220;235;64732;-67
2022/08/17 06:22:11;;;;;;;;;;;;;;;23.02;74.77;96671.91;601289;235;68901;-69
2022/08/17 06:24:43;;;;;;;;;;;;;;;23.03;75.17;96665.48;601360;236;64782;-67
2022/08/17 06:27:15;;;;;;;;;;;;;;;23.03;75.72;96663.59;601178;235;67242;-67
2022/08/17 06:29:51;;;;;;;;;;;;;;;23.05;75.99;96671.33;599820;235;67142;-66
2022/08/17 06:32:19;;;;;;;;;;;;;;;23.05;76.17;96665.97;601237;236;62660;-66
2022/08/17 06:34:47;;;;;;;;;;;;;;;23.05;76.47;96657.92;601093;236;67063;-67
2022/08/17 06:37:20;;;;;;;;;;;;;;;23.08;75.79;96667.27;601401;236;66816;-69
2022/08/17 06:40:04;;;;;;;;;;;;;;;23.10;74.68;96665.09;601230;236;63041;-67
2022/08/17 06:42:39;;;;;;;;;;;;;;;23.09;76.35;96661.63;600894;236;67037;-65
2022/08/17 06:45:07;;;;;;;;;;;;;;;23.09;77.37;96656.27;601214;235;67216;-66
2022/08/17 06:47:38;;;;;;;;;;;;;;;23.10;76.99;96657.84;601296;236;62787;-65
2022/08/17 06:50:19;;;;;;;;;;;;;;;23.09;76.57;96664.31;601086;236;67242;-65
2022/08/17 06:52:51;;;;;;;;;;;;;;;23.10;76.62;96657.06;601119;236;45123;-65
2022/08/17 06:55:26;;;;;;;;;;;;;;;23.09;76.57;96653.59;601303;236;64891;-65
2022/08/17 06:57:55;;;;;;;;;;;;;;;23.10;76.63;96649.02;601296;236;67154;-65
2022/08/17 07:00:24;;;;;;;;;;;;;;;23.10;76.59;96652.48;601230;236;66939;-64
2022/08/17 07:02:56;;;;;;;;;;;;;;;23.10;76.67;96647.13;600164;235;65029;-64
2022/08/17 07:05:27;;;;;;;;;;;;;;;23.12;76.68;96652.20;589361;240;66853;-64
2022/08/17 07:08:01;;;;;;;;;;;;;;;23.12;76.84;96639.59;593226;239;66976;-64
2022/08/17 07:10:30;;;;;;;;;;;;;;;23.12;76.75;96639.59;595544;237;63609;-64
2022/08/17 07:13:00;;;;;;;;;;;;;;;23.12;76.79;96639.59;591561;239;67468;-65
2022/08/17 07:15:32;;;;;;;;;;;;;;;23.13;76.84;96641.17;588029;240;64770;-66
2022/08/17 07:18:02;;;;;;;;;;;;;;;23.14;76.89;96647.36;594352;238;66033;-66
2022/08/17 07:20:30;;;;;;;;;;;;;;;23.14;76.87;96639.31;596667;233;67085;-66
2022/08/17 07:22:59;;;;;;;;;;;;;;;23.14;77.06;96634.75;607761;233;66964;-67
2022/08/17 07:25:27;;;;;;;;;;;;;;;23.13;76.99;96635.81;608421;233;65379;-66
2022/08/17 07:27:58;;;;;;;;;;;;;;;23.14;77.08;96637.42;608490;233;67047;-67
2022/08/17 07:30:26;;;;;;;;;;;;;;;23.15;77.10;96643.58;608341;233;66891;-68
2022/08/17 07:33:01;;;;;;;;;;;;;;;23.15;77.14;96641.69;608431;233;62767;-65
2022/08/17 07:35:30;;;;;;;;;;;;;;;23.15;77.19;96635.53;608507;233;64806;-65
2022/08/17 07:38:08;;;;;;;;;;;;;;;23.16;77.33;96648.66;608383;233;65471;-67
2022/08/17 07:40:37;;;;;;;;;;;;;;;23.16;77.29;96634.44;608442;233;64911;-64
2022/08/17 07:43:23;;;;;;;;;;;;;;;23.16;77.17;96634.44;607637;233;67385;-65
2022/08/17 07:48:38;;;;;;;;;;;;;;;23.16;77.55;96637.94;608464;233;62843;-66
2022/08/17 07:51:13;;;;;;;;;;;;;;;23.16;77.21;96631.75;608378;233;67292;-66
2022/08/17 07:53:41;;;;;;;;;;;;;;;23.16;77.21;96635.25;601985;233;66844;-66
2022/08/17 07:56:08;;;;;;;;;;;;;;;23.17;77.26;96628.80;608359;233;66283;-66
2022/08/17 07:58:36;;;;;;;;;;;;;;;23.17;77.53;96631.47;608354;233;67060;-67
2022/08/17 08:01:08;;;;;;;;;;;;;;;23.18;77.28;96634.94;608401;233;67531;-66
2022/08/17 08:03:37;;;;;;;;;;;;;;;23.18;77.25;96627.69;614395;230;64909;-67
2022/08/17 08:06:06;;;;;;;;;;;;;;;23.19;76.72;96628.48;616462;230;67197;-65
2022/08/17 08:08:35;;;;;;;;;;;;;;;23.18;73.97;96614.29;616274;230;67034;-66
2022/08/17 08:11:05;;;;;;;;;;;;;;;23.21;74.42;96618.27;616725;230;64846;-67
2022/08/17 08:13:33;;;;;;;;;;;;;;;23.21;76.96;96621.73;609316;230;67222;-66
2022/08/17 08:16:19;;;;;;;;;;;;;;;23.20;77.09;96619.37;602859;230;69944;-66
2022/08/17 08:18:48;;;;;;;;;;;;;;;23.19;76.22;96618.58;616906;230;62581;-64
2022/08/17 08:21:29;;;;;;;;;;;;;;;23.20;77.01;96614.80;616963;230;66642;-64
2022/08/17 08:24:01;;;;;;;;;;;;;;;23.19;76.94;96613.22;616923;230;66994;-66
2022/08/17 08:26:39;;;;;;;;;;;;;;;23.20;77.16;96614.80;616099;230;62582;-65
2022/08/17 08:29:11;;;;;;;;;;;;;;;23.21;77.33;96615.59;615821;230;65922;-65
2022/08/17 08:31:55;;;;;;;;;;;;;;;23.21;77.49;96619.06;616990;230;67306;-67
2022/08/17 08:34:28;;;;;;;;;;;;;;;23.20;77.32;96630.88;616938;230;65957;-65
2022/08/17 08:36:57;;;;;;;;;;;;;;;23.20;77.18;96620.16;616840;230;67378;-64
2022/08/17 08:39:26;;;;;;;;;;;;;;;23.21;77.21;96618.27;616822;230;66978;-64
2022/08/17 08:42:06;;;;;;;;;;;;;;;23.20;77.38;96612.11;616688;230;65225;-63
2022/08/17 08:44:38;;;;;;;;;;;;;;;23.21;77.39;96616.37;616836;230;67109;-63
2022/08/17 08:47:25;;;;;;;;;;;;;;;23.21;77.32;96610.22;616929;230;64439;-63
2022/08/17 08:50:05;;;;;;;;;;;;;;;23.22;77.36;96617.98;616869;230;66406;-63
2022/08/17 08:52:34;;;;;;;;;;;;;;;23.22;75.73;96620.66;616745;230;64934;-63
2022/08/17 08:55:03;;;;;;;;;;;;;;;23.22;76.21;96617.98;616956;230;67081;-64
2022/08/17 08:57:32;;;;;;;;;;;;;;;23.22;77.10;96619.88;616565;230;62815;-63
2022/08/17 09:00:13;;;;;;;;;;;;;;;23.24;77.36;96625.72;616959;230;64755;-63
2022/08/17 09:02:48;;;;;;;;;;;;;;;23.24;77.43;96620.36;616809;230;64869;-63
2022/08/17 09:05:27;;;;;;;;;;;;;;;23.23;77.45;96624.14;616886;230;66101;-62
2022/08/17 09:08:09;;;;;;;;;;;;;;;23.22;77.54;96626.03;616728;230;64701;-69
2022/08/17 09:10:55;;;;;;;;;;;;;;;23.26;76.21;96613.61;612045;230;65425;-64
2022/08/17 09:13:30;;;;;;;;;;;;;;;23.30;73.19;96621.06;616388;230;65124;-64
2022/08/17 09:15:59;;;;;;;;;;;;;;;23.33;73.71;96617.81;615563;230;66818;-64
2022/08/17 09:18:28;;;;;;;;;;;;;;;23.35;72.86;96623.66;616057;230;67011;-64
2022/08/17 09:21:13;;;;;;;;;;;;;;;23.37;73.04;96624.16;616314;230;62606;-64
2022/08/17 09:23:43;;;;;;;;;;;;;;;23.38;73.09;96631.11;608973;232;66917;-63
2022/08/17 09:26:29;;;;;;;;;;;;;;;23.38;71.19;96631.11;614633;230;64766;-63
2022/08/17 09:29:00;;;;;;;;;;;;;;;23.40;71.55;96618.99;616981;230;62747;-63
2022/08/17 09:31:38;;;;;;;;;;;;;;;23.41;71.65;96625.17;616821;230;66940;-66
2022/08/17 09:34:06;;;;;;;;;;;;;;;23.42;70.45;96614.14;616337;230;64868;-68
2022/08/17 09:36:35;;;;;;;;;;;;;;;23.43;69.68;96617.61;616913;230;65135;-69
2022/08/17 09:39:04;;;;;;;;;;;;;;;23.43;68.84;96615.72;616570;230;66920;-64
2022/08/17 09:41:45;;;;;;;;;;;;;;;23.44;68.00;96611.96;616897;230;64763;-64
2022/08/17 09:44:23;;;;;;;;;;;;;;;23.45;69.29;96618.91;616529;230;63834;-64
2022/08/17 09:46:52;;;;;;;;;;;;;;;23.45;69.68;96621.59;616496;230;65101;-64
2022/08/17 09:49:33;;;;;;;;;;;;;;;23.47;73.98;96613.26;616849;230;67035;-65
2022/08/17 09:52:02;;;;;;;;;;;;;;;23.46;75.07;96614.33;616721;230;62805;-65
2022/08/17 09:54:31;;;;;;;;;;;;;;;23.44;75.46;96614.64;616844;230;68196;-64
2022/08/17 09:57:03;;;;;;;;;;;;;;;23.45;75.42;96612.75;616875;230;66830;-64
2022/08/17 09:59:32;;;;;;;;;;;;;;;23.44;74.22;96608.49;616562;228;62757;-64
2022/08/17 10:02:08;;;;;;;;;;;;;;;23.45;71.80;96612.75;616598;230;64656;-63
2022/08/17 10:04:38;;;;;;;;;;;;;;;23.45;70.26;96605.50;616931;230;67777;-64
2022/08/17 10:07:08;;;;;;;;;;;;;;;23.46;70.91;96612.47;616757;230;64861;-64
2022/08/17 10:09:37;;;;;;;;;;;;;;;23.48;72.40;96612.95;616470;230;67266;-64
2022/08/17 10:12:22;;;;;;;;;;;;;;;23.48;71.12;96620.99;616767;230;67050;-64
2022/08/17 10:14:53;;;;;;;;;;;;;;;23.48;70.73;96609.47;616916;230;66028;-64
2022/08/17 10:17:22;;;;;;;;;;;;;;;23.49;70.60;96613.77;616959;230;66877;-64
2022/08/17 10:20:08;;;;;;;;;;;;;;;23.49;69.85;96611.08;616769;230;64828;-64
2022/08/17 10:28:27;;;;;;;;;;;;;;;23.52;70.14;96609.67;616907;230;66778;-63
2022/08/17 10:30:56;;;;;;;;;;;;;;;23.52;69.26;96598.94;616899;230;65823;-63
2022/08/17 10:33:26;;;;;;;;;;;;;;;23.52;69.71;96594.39;616942;230;67133;-64
2022/08/17 10:36:00;;;;;;;;;;;;;;;23.53;71.46;96585.24;616766;230;65012;-64
2022/08/17 10:38:29;;;;;;;;;;;;;;;23.52;73.90;96586.34;616966;230;66035;-64
2022/08/17 10:40:58;;;;;;;;;;;;;;;23.51;75.12;96592.00;616946;230;64742;-64
2022/08/17 10:43:43;;;;;;;;;;;;;;;23.50;75.45;96596.57;616639;230;64847;-68
2022/08/17 10:46:29;;;;;;;;;;;;;;;23.50;75.39;96593.89;616983;230;65143;-64
2022/08/17 10:49:09;;;;;;;;;;;;;;;23.49;74.74;96578.90;616881;230;65014;-64
2022/08/17 10:51:38;;;;;;;;;;;;;;;23.49;73.94;96574.33;614581;230;64514;-64
2022/08/17 10:54:06;;;;;;;;;;;;;;;23.50;70.77;96585.84;616984;230;65341;-65
2022/08/17 10:56:44;;;;;;;;;;;;;;;23.52;73.00;96578.30;616766;230;66958;-64
2022/08/17 10:59:13;;;;;;;;;;;;;;;23.51;71.93;96571.33;616677;230;67228;-65
2022/08/17 11:01:42;;;;;;;;;;;;;;;23.52;70.51;96570.25;615759;230;64961;-65
2022/08/17 11:04:11;;;;;;;;;;;;;;;23.54;71.09;96581.45;614520;230;67481;-64
2022/08/17 11:06:41;;;;;;;;;;;;;;;23.55;73.36;96568.87;614026;230;66984;-64
2022/08/17 11:09:10;;;;;;;;;;;;;;;23.54;70.98;96572.63;614448;231;63035;-65
2022/08/17 11:11:41;;;;;;;;;;;;;;;23.54;68.96;96570.73;614235;230;67234;-65
2022/08/17 11:14:15;;;;;;;;;;;;;;;23.56;70.21;96557.83;614458;231;67024;-65
2022/08/17 11:17:00;;;;;;;;;;;;;;;23.57;70.64;96564.80;614366;231;62746;-65
2022/08/17 11:19:38;;;;;;;;;;;;;;;23.56;69.24;96552.45;614409;231;67046;-65
2022/08/17 11:22:08;;;;;;;;;;;;;;;23.59;70.71;96556.44;614521;231;66926;-65
2022/08/17 11:24:37;;;;;;;;;;;;;;;23.58;72.29;96563.69;614501;231;65359;-64
2022/08/17 11:27:08;;;;;;;;;;;;;;;23.57;70.02;96564.80;614554;231;67497;-65
2022/08/17 11:29:53;;;;;;;;;;;;;;;23.57;67.05;96559.44;614574;230;64644;-65
2022/08/17 11:32:36;;;;;;;;;;;;;;;23.56;66.60;96559.72;614504;231;64983;-64
2022/08/17 11:35:11;;;;;;;;;;;;;;;23.55;68.88;96558.14;614587;231;67030;-68
2022/08/17 11:37:43;;;;;;;;;;;;;;;23.52;69.40;96556.84;614587;231;64635;-66
2022/08/17 11:40:12;;;;;;;;;;;;;;;23.54;71.35;96553.84;614546;231;62848;-65
2022/08/17 11:42:57;;;;;;;;;;;;;;;23.51;71.86;96552.55;614435;230;64868;-64
2022/08/17 11:45:47;;;;;;;;;;;;;;;23.50;72.84;96548.30;614662;230;48857;-65
2022/08/17 11:51:41;;;;;;;;;;;;;;;23.47;73.48;96538.16;614662;231;67172;-65
2022/08/17 11:53:57;;;;;;;;;;;;;;;23.46;74.94;96548.11;613452;230;64879;-64
2022/08/17 11:56:37;;;;;;;;;;;;;;;23.44;75.17;96544.92;614557;231;62885;-64
2022/08/17 11:59:06;;;;;;;;;;;;;;;23.44;75.23;96546.81;614590;231;67067;-67
2022/08/17 12:01:54;;;;;;;;;;;;;;;23.43;75.10;96543.31;613829;231;66810;-66
2022/08/17 12:04:26;;;;;;;;;;;;;;;23.44;75.25;96549.50;614616;231;62877;-65
2022/08/17 12:06:58;;;;;;;;;;;;;;;23.43;75.15;96540.63;614361;230;64975;-64
2022/08/17 12:09:33;;;;;;;;;;;;;;;23.43;74.94;96551.36;614632;231;66926;-65
2022/08/17 12:12:06;;;;;;;;;;;;;;;23.42;74.99;96532.91;614555;231;65133;-64
2022/08/17 12:14:34;;;;;;;;;;;;;;;23.43;75.12;96526.44;616714;230;66781;-65
2022/08/17 12:17:04;;;;;;;;;;;;;;;23.43;75.24;96526.44;617136;230;64444;-65
2022/08/17 12:19:33;;;;;;;;;;;;;;;23.43;75.14;96524.54;617050;230;64546;-65
2022/08/17 12:22:05;;;;;;;;;;;;;;;23.43;75.24;96526.44;617141;230;67543;-64
2022/08/17 12:24:36;;;;;;;;;;;;;;;23.43;75.12;96518.39;617192;230;47146;-65
2022/08/17 12:27:05;;;;;;;;;;;;;;;23.44;75.23;96520.78;617153;230;64890;-64
2022/08/17 12:29:34;;;;;;;;;;;;;;;23.44;75.03;96525.36;617179;230;67336;-66
2022/08/17 12:32:03;;;;;;;;;;;;;;;23.44;75.05;96515.42;617187;230;64818;-65
2022/08/17 12:34:35;;;;;;;;;;;;;;;23.44;75.03;96520.00;617205;230;65038;-66
2022/08/17 12:37:04;;;;;;;;;;;;;;;23.44;74.92;96514.63;617094;230;64543;-65
2022/08/17 12:39:32;;;;;;;;;;;;;;;23.43;74.81;96516.50;617200;230;67118;-67
2022/08/17 12:42:00;;;;;;;;;;;;;;;23.45;74.77;96526.94;617201;230;65226;-68
2022/08/17 12:44:30;;;;;;;;;;;;;;;23.45;74.84;96524.25;617178;230;66809;-68
2022/08/17 12:47:16;;;;;;;;;;;;;;;23.46;74.85;96517.78;617192;230;64843;-68
2022/08/17 12:49:44;;;;;;;;;;;;;;;23.45;74.84;96518.89;617159;230;65010;-67
2022/08/17 12:52:16;;;;;;;;;;;;;;;23.48;70.22;96512.92;617235;230;65106;-68
2022/08/17 12:54:51;;;;;;;;;;;;;;;23.49;71.10;96509.17;617125;230;67033;-68
2022/08/17 12:57:21;;;;;;;;;;;;;;;23.49;70.45;96512.64;617128;230;65110;-68
2022/08/17 12:59:50;;;;;;;;;;;;;;;23.51;72.60;96522.27;617219;230;67115;-68
2022/08/17 13:02:22;;;;;;;;;;;;;;;23.49;73.59;96509.17;617030;230;67138;-68
2022/08/17 13:04:50;;;;;;;;;;;;;;;23.48;73.50;96512.92;616877;230;65437;-68
2022/08/17 13:07:27;;;;;;;;;;;;;;;23.48;73.33;96512.92;617088;230;67078;-68
2022/08/17 13:09:55;;;;;;;;;;;;;;;23.48;73.50;96512.92;616770;230;65012;-68
2022/08/17 13:12:30;;;;;;;;;;;;;;;23.48;73.57;96515.61;616995;230;62476;-69
2022/08/17 13:14:58;;;;;;;;;;;;;;;23.57;72.21;96508.47;609536;230;66577;-69
2022/08/17 13:17:27;;;;;;;;;;;;;;;23.58;68.68;96509.26;617037;230;66896;-69
2022/08/17 13:19:55;;;;;;;;;;;;;;;23.57;66.20;96505.79;617108;230;65083;-69
2022/08/17 13:22:24;;;;;;;;;;;;;;;23.58;69.14;96507.36;603453;230;69319;-68
2022/08/17 13:24:56;;;;;;;;;;;;;;;23.55;68.41;96505.28;616857;230;66835;-68
2022/08/17 13:27:25;;;;;;;;;;;;;;;23.55;70.15;96505.28;617110;230;65125;-67
2022/08/17 13:29:56;;;;;;;;;;;;;;;23.54;72.02;96495.63;617114;230;66797;-69
2022/08/17 13:32:44;;;;;;;;;;;;;;;23.54;72.50;96511.72;617110;230;64478;-68